首页
METAR-TAF:

METAR-TAF

机场 :

羅塔國際機場

羅塔島, 马里亚纳群岛, 美国

纬度: 14-11N, 经度: 145-15E, 海拔: 185米

当前天气观测

该预报发布于2小时和31分钟前的07:50 UTC
风速11节,风向东转东南
温度 27°C
湿度 89%
气压 1010 hPa
能見度: 11.3公里
少量云层高于1100英尺
阴天层高于10000英尺

METAR: PGRO 180750Z 12011KT 7SM FEW011 OVC100 27/25 A2982 RMK LAST

时间: 20:21 (10:21 UTC)

预报

该预报发布于4小时和42分钟前的05:39 UTC
预报有效从18日的 06点(UTC)到 19日的 06点(UTC)
风速14节,风向东南
能見度: 10公里
少量云层高于1000英尺
散云层高于1500英尺
多云层高于10000英尺
附近有阵雨
短暂存在
从 18日的 07点(UTC)到 18日的 11点(UTC)
风速14节,风向东转东南,有时为24节阵风
能見度: 6.4公里
散云层高于1000英尺
多云层高于1500英尺
阴天层高于8000英尺
阵雨,

TAF: PGRO 180539Z 1806/1906 13014KT P6SM VCSH FEW010 SCT015 BKN100 TEMPO 1807/1811 11014G24KT 4SM SHRA SCT010 BKN015 OVC080

超过4000个机场的气象观测和天气预报(METAR&TAF报告)。

可查询的气象台以黄色和红色小点在地图上表示。

将鼠标移到小点上方,可查看气象台名称。

然后点击查看天气观测和预报。

如需切换地图:点击带黑十字的绿色按钮放大地图;点击带横线的绿色按钮缩小地图;或者点击绿色箭头查看邻近地区的地图。


METAR-TAF: